Time;durP1;ratioP1;P1;durP2;ratioP2;P2;SDS_P1;SDS_P2;PMS_P1;PMS_P2;Temp;Humidity;BMP_temperature;BMP_pressure;BME280_temperature;BME280_humidity;BME280_pressure;Samples;Min_cycle;Max_cycle;Signal;HPM_P1;HPM_P2
2021/04/10 00:01:34;;;;;;;5.63;2.50;;;;;;;7.88;49.03;95907.53;5067542;28;20537;-76
2021/04/10 00:04:00;;;;;;;11.83;5.70;;;;;;;7.88;48.54;95910.16;5065680;28;20173;-76
2021/04/10 00:06:26;;;;;;;10.03;3.87;;;;;;;7.89;48.64;95906.59;5059157;28;20508;-75
2021/04/10 00:08:52;;;;;;;7.30;2.50;;;;;;;7.89;48.66;95906.59;5057946;28;20063;-75
2021/04/10 00:11:18;;;;;;;8.37;3.10;;;;;;;7.89;49.02;95898.75;5075517;28;20044;-75
2021/04/10 00:13:43;;;;;;;8.77;2.87;;;;;;;7.88;49.29;95897.06;5078773;28;20093;-75
2021/04/10 00:16:09;;;;;;;8.30;3.10;;;;;;;7.87;49.41;95898.88;5064114;28;20052;-75
2021/04/10 00:18:34;;;;;;;7.40;2.40;;;;;;;7.91;49.26;95897.59;5078200;28;20648;-76
2021/04/10 00:21:00;;;;;;;7.87;2.47;;;;;;;7.90;49.42;95895.13;5065134;28;20039;-75
2021/04/10 00:23:26;;;;;;;6.93;2.20;;;;;;;7.92;49.57;95895.81;5063745;28;20500;-76
2021/04/10 00:25:51;;;;;;;6.33;2.50;;;;;;;8.02;49.57;95888.69;5075917;28;20060;-76
2021/04/10 00:28:17;;;;;;;10.73;3.97;;;;;;;8.00;50.17;95885.41;5056509;28;20020;-77
2021/04/10 00:30:43;;;;;;;20.23;6.10;;;;;;;8.04;50.03;95889.34;5052613;28;20516;-77
2021/04/10 00:33:09;;;;;;;15.93;4.83;;;;;;;8.10;49.46;95887.94;5056108;28;20032;-77
2021/04/10 00:35:36;;;;;;;17.17;4.03;;;;;;;8.10;49.27;95883.50;5080587;28;20028;-78
2021/04/10 00:38:02;;;;;;;14.87;4.50;;;;;;;8.21;49.24;95888.50;5067882;28;20381;-77
2021/04/10 00:40:28;;;;;;;20.67;5.03;;;;;;;8.25;48.89;95892.47;5064598;28;20037;-78
2021/04/10 00:42:54;;;;;;;24.87;6.73;;;;;;;8.31;48.61;95891.03;5086568;28;20024;-77
2021/04/10 00:45:20;;;;;;;16.23;4.93;;;;;;;8.30;48.47;95889.38;5086989;28;20078;-78
2021/04/10 00:47:48;;;;;;;10.77;2.63;;;;;;;8.43;48.55;95884.59;5074343;28;20016;-78
2021/04/10 00:50:14;;;;;;;5.20;1.80;;;;;;;8.47;48.31;95888.53;5067402;28;20032;-78
2021/04/10 00:52:41;;;;;;;5.37;1.40;;;;;;;8.56;47.77;95878.94;5059298;28;20039;-78
2021/04/10 00:55:10;;;;;;;5.53;1.70;;;;;;;8.72;47.10;95881.66;5062851;28;20017;-78
2021/04/10 00:57:36;;;;;;;5.30;1.60;;;;;;;8.80;47.15;95888.72;5072064;28;20033;-77
2021/04/10 01:00:05;;;;;;;4.13;1.93;;;;;;;8.87;46.87;95878.44;5062500;28;20032;-78
2021/04/10 01:02:30;;;;;;;4.67;2.43;;;;;;;8.88;47.11;95875.63;5060113;28;20036;-77
2021/04/10 01:04:56;;;;;;;6.33;2.20;;;;;;;8.84;47.65;95878.75;5073390;28;20028;-77
2021/04/10 01:07:22;;;;;;;5.30;1.10;;;;;;;8.91;47.30;95874.50;5074323;28;20032;-78
2021/04/10 01:09:49;;;;;;;4.80;1.83;;;;;;;8.71;48.20;95876.56;5064742;28;20090;-78
2021/04/10 01:13:02;;;;;;;7.63;2.17;;;;;;;8.64;48.53;95872.91;5069179;28;20024;-79
2021/04/10 01:15:37;;;;;;;8.47;1.53;;;;;;;8.63;48.24;95871.28;5027524;28;20040;-77
2021/04/10 01:18:10;;;;;;;6.57;1.87;;;;;;;8.58;48.81;95879.59;5062235;28;20100;-78
2021/04/10 01:20:55;;;;;;;5.63;1.23;;;;;;;8.60;48.69;95872.41;5064232;28;20028;-77
2021/04/10 01:23:48;;;;;;;4.82;1.50;;;;;;;8.59;48.93;95864.72;5054048;28;20040;-77
2021/04/10 01:26:17;;;;;;;;;;;;;;;8.73;48.00;95875.41;5063159;28;20070;-78
2021/04/10 01:29:02;;;;;;;5.40;1.40;;;;;;;8.65;48.52;95864.06;5060525;28;20325;-78
2021/04/10 01:31:36;;;;;;;5.53;1.70;;;;;;;8.65;48.80;95875.41;5066248;28;20559;-76
2021/04/10 01:34:07;;;;;;;5.50;1.80;;;;;;;8.64;48.76;95871.09;5069411;28;20032;-77
2021/04/10 01:36:37;;;;;;;4.80;1.50;;;;;;;8.78;48.31;95874.13;5081694;28;20032;-78
2021/04/10 01:39:06;;;;;;;4.43;1.53;;;;;;;8.78;48.33;95868.88;5065591;28;20036;-78
2021/04/10 01:41:33;;;;;;;2.90;1.50;;;;;;;8.78;48.53;95864.44;5050239;28;20552;-78
2021/04/10 01:44:00;;;;;;;5.97;1.83;;;;;;;8.68;48.64;95872.44;5062296;28;20426;-77
2021/04/10 01:46:27;;;;;;;6.03;1.70;;;;;;;8.44;49.59;95874.94;5061234;28;20343;-76
2021/04/10 01:48:56;;;;;;;9.10;2.80;;;;;;;8.34;50.50;95876.81;5080910;28;20605;-77
2021/04/10 01:51:23;;;;;;;7.37;1.80;;;;;;;8.26;50.77;95869.72;5053155;28;20032;-78
2021/04/10 01:53:50;;;;;;;4.27;1.50;;;;;;;8.68;48.71;95872.44;5074805;28;20066;-78
2021/04/10 01:56:19;;;;;;;5.90;1.70;;;;;;;8.73;48.91;95862.31;5073693;28;20029;-78
2021/04/10 01:58:54;;;;;;;6.43;1.70;;;;;;;8.93;48.31;95857.66;5060426;28;20017;-78
2021/04/10 02:01:30;;;;;;;5.70;1.80;;;;;;;8.96;48.40;95861.75;5072929;28;20633;-78
2021/04/10 02:03:57;;;;;;;5.40;1.30;;;;;;;8.89;49.13;95860.75;5052852;28;20024;-78
2021/04/10 02:06:27;;;;;;;7.33;1.87;;;;;;;8.96;49.04;95856.53;5075896;28;20051;-78
2021/04/10 02:09:01;;;;;;;2.93;1.40;;;;;;;8.81;49.79;95853.66;5052703;28;20044;-78
2021/04/10 02:11:43;;;;;;;5.10;1.70;;;;;;;8.87;49.40;95839.09;5060994;28;20197;-78
2021/04/10 02:14:20;;;;;;;5.70;1.73;;;;;;;8.89;49.28;95840.59;5065640;28;20029;-78
2021/04/10 02:16:49;;;;;;;5.03;1.50;;;;;;;8.97;48.62;95838.00;5054666;28;20036;-78
2021/04/10 02:19:18;;;;;;;4.63;1.30;;;;;;;8.94;49.52;95847.97;5066602;28;20029;-78
2021/04/10 02:21:51;;;;;;;5.87;1.73;;;;;;;8.98;49.37;95844.06;5044719;28;20020;-77
2021/04/10 02:24:19;;;;;;;3.57;1.37;;;;;;;8.84;49.93;95848.09;5071907;28;20047;-78
2021/04/10 02:26:54;;;;;;;4.73;1.67;;;;;;;8.91;49.82;95848.28;5059207;28;20028;-78
2021/04/10 02:29:23;;;;;;;3.77;1.40;;;;;;;8.86;50.07;95850.59;5071280;28;20513;-78
2021/04/10 02:32:03;;;;;;;4.47;1.33;;;;;;;8.84;50.62;95855.97;5068155;28;20466;-77
2021/04/10 02:34:46;;;;;;;4.53;1.30;;;;;;;8.84;50.00;95849.91;5080797;28;20051;-78
2021/04/10 02:37:12;;;;;;;4.50;1.33;;;;;;;8.91;49.83;95848.28;5057207;28;20064;-79
2021/04/10 02:39:41;;;;;;;5.80;1.47;;;;;;;8.84;50.35;95849.91;5080709;28;20222;-78
2021/04/10 02:42:10;;;;;;;6.17;2.33;;;;;;;8.92;49.91;95847.28;5052649;28;20398;-78
2021/04/10 02:44:50;;;;;;;3.70;1.53;;;;;;;8.74;50.30;95845.59;5073031;28;20052;-78
2021/04/10 02:47:26;;;;;;;5.95;1.65;;;;;;;8.79;50.34;95839.09;5059748;28;20042;-77
2021/04/10 02:49:58;;;;;;;6.13;1.30;;;;;;;8.64;50.96;95837.03;5046807;28;20450;-78
2021/04/10 02:52:43;;;;;;;3.43;1.33;;;;;;;8.49;51.42;95842.06;5075282;28;20102;-78
2021/04/10 02:55:16;;;;;;;4.03;1.43;;;;;;;8.45;51.40;95842.50;5074662;28;20440;-78
2021/04/10 02:57:44;;;;;;;9.00;2.17;;;;;;;8.50;51.28;95841.06;5061858;28;20115;-78
2021/04/10 03:00:15;;;;;;;4.73;1.40;;;;;;;8.52;51.22;95843.53;5057083;28;20021;-77
2021/04/10 03:02:43;;;;;;;7.23;1.73;;;;;;;8.44;51.74;95836.44;5069068;28;20079;-78
2021/04/10 03:05:13;;;;;;;9.77;1.97;;;;;;;8.49;51.46;95834.19;5072418;28;20036;-78
2021/04/10 03:07:58;;;;;;;4.67;1.40;;;;;;;8.41;51.37;95830.69;5079785;28;20405;-78
2021/04/10 03:10:29;;;;;;;7.30;1.80;;;;;;;8.38;51.50;95833.63;5065957;28;20398;-78
2021/04/10 03:12:58;;;;;;;6.90;1.83;;;;;;;8.31;51.99;95836.00;5071050;28;20119;-77
2021/04/10 03:15:29;;;;;;;5.00;1.80;;;;;;;8.28;52.25;95838.94;5064802;28;20107;-78
2021/04/10 03:17:55;;;;;;;6.97;1.53;;;;;;;8.20;52.60;95839.72;5082860;28;20020;-78
2021/04/10 03:20:23;;;;;;;5.07;1.80;;;;;;;8.23;52.39;95843.81;5062416;28;20119;-77
2021/04/10 03:22:52;;;;;;;5.90;2.10;;;;;;;8.10;53.25;95835.56;5067057;28;20924;-76
2021/04/10 03:25:23;;;;;;;4.93;1.60;;;;;;;8.09;53.12;95842.59;5079389;28;20024;-76
2021/04/10 03:27:53;;;;;;;4.13;1.40;;;;;;;8.08;52.91;95848.81;5070354;28;20036;-76
2021/04/10 03:30:20;;;;;;;6.10;1.53;;;;;;;8.05;53.26;95846.50;5084068;28;20089;-76
2021/04/10 03:32:50;;;;;;;4.40;1.43;;;;;;;8.01;53.33;95843.38;5053535;28;20727;-76
2021/04/10 03:35:16;;;;;;;6.77;1.50;;;;;;;8.08;52.95;95850.59;5069243;28;20401;-76
2021/04/10 03:37:44;;;;;;;4.87;1.30;;;;;;;8.04;53.09;95842.22;5079677;28;20032;-77
2021/04/10 03:40:13;;;;;;;5.10;1.23;;;;;;;8.14;53.06;95845.56;5081312;28;20526;-77
2021/04/10 03:42:44;;;;;;;5.03;1.60;;;;;;;8.16;52.93;95848.84;5079645;28;20055;-77
2021/04/10 03:45:22;;;;;;;6.00;1.83;;;;;;;8.17;52.60;95839.19;5056818;28;20029;-77
2021/04/10 03:47:54;;;;;;;4.70;1.50;;;;;;;8.19;52.66;95842.50;5067752;28;20125;-76
2021/04/10 03:50:22;;;;;;;4.75;1.63;;;;;;;8.23;52.67;95849.06;5067542;28;20510;-77
2021/04/10 03:52:50;;;;;;;5.23;1.37;;;;;;;8.22;52.87;95845.63;5054553;28;20040;-77
2021/04/10 03:55:17;;;;;;;4.90;1.40;;;;;;;8.31;52.43;95854.34;5080848;28;20031;-77
2021/04/10 03:57:44;;;;;;;2.77;1.00;;;;;;;8.45;52.42;95845.13;5054723;28;20035;-78
2021/04/10 04:00:10;;;;;;;6.87;1.50;;;;;;;8.45;51.71;95850.34;5072292;28;20028;-77
2021/04/10 04:02:42;;;;;;;5.57;1.27;;;;;;;8.47;51.94;95849.22;5068194;28;20032;-74
2021/04/10 04:05:11;;;;;;;5.17;1.30;;;;;;;8.58;51.19;95858.63;5069023;28;20036;-75
2021/04/10 04:07:37;;;;;;;8.43;1.70;;;;;;;8.65;50.65;95859.66;5080921;28;20025;-75
2021/04/10 04:10:04;;;;;;;5.40;1.43;;;;;;;8.69;51.02;95855.75;5059565;28;20489;-74
2021/04/10 04:12:30;;;;;;;4.33;1.50;;;;;;;8.65;51.30;95859.66;5067526;28;20028;-75
2021/04/10 04:14:56;;;;;;;5.70;1.37;;;;;;;8.59;51.86;95859.47;5055216;28;20039;-75
2021/04/10 04:17:21;;;;;;;5.23;1.10;;;;;;;8.63;51.54;95860.78;5069925;28;20024;-75
2021/04/10 04:19:47;;;;;;;4.70;1.30;;;;;;;8.60;51.78;95867.16;5055568;28;20028;-76
2021/04/10 04:22:13;;;;;;;3.70;1.23;;;;;;;8.76;51.12;95865.63;5066111;28;20079;-75
2021/04/10 04:24:38;;;;;;;5.87;1.70;;;;;;;8.80;51.45;95869.56;5042519;28;20721;-74
2021/04/10 04:27:05;;;;;;;7.70;2.20;;;;;;;8.86;50.91;95868.94;5071930;28;20569;-74
2021/04/10 04:29:31;;;;;;;6.07;1.60;;;;;;;8.93;50.73;95869.94;5063656;28;20036;-76
2021/04/10 04:31:57;;;;;;;7.50;1.40;;;;;;;8.95;50.97;95874.06;5077277;28;20059;-75
2021/04/10 04:34:22;;;;;;;5.80;1.60;;;;;;;9.01;51.21;95882.25;5039270;28;20040;-75
2021/04/10 04:36:48;;;;;;;3.33;1.57;;;;;;;9.01;51.27;95879.63;5032815;28;20021;-76
2021/04/10 04:39:14;;;;;;;3.47;1.43;;;;;;;9.00;51.76;95876.19;5057277;28;20155;-74
2021/04/10 04:41:39;;;;;;;4.30;1.30;;;;;;;9.12;50.95;95888.06;5059057;28;20114;-75
2021/04/10 04:44:05;;;;;;;3.87;1.10;;;;;;;9.05;51.71;95887.03;5082055;28;20056;-75
2021/04/10 04:46:31;;;;;;;7.73;1.30;;;;;;;9.05;51.75;95887.03;5079564;28;20090;-74
2021/04/10 04:48:56;;;;;;;4.17;1.20;;;;;;;9.11;51.73;95891.63;5061702;28;20538;-75
2021/04/10 04:51:22;;;;;;;3.87;1.50;;;;;;;9.03;52.07;95894.25;5073576;28;20082;-76
2021/04/10 04:53:48;;;;;;;2.47;0.93;;;;;;;9.10;51.82;95907.56;5052223;28;20053;-74
2021/04/10 04:56:14;;;;;;;7.47;1.53;;;;;;;9.00;52.20;95910.28;5074172;28;20013;-75
2021/04/10 04:58:39;;;;;;;2.53;0.87;;;;;;;9.01;52.35;95911.09;5066500;28;20124;-75
2021/04/10 05:01:05;;;;;;;3.80;1.17;;;;;;;9.03;52.71;95912.59;5066620;28;20039;-75
2021/04/10 05:03:31;;;;;;;4.00;1.27;;;;;;;8.95;55.62;95923.88;5067427;28;20048;-74
2021/04/10 05:05:57;;;;;;;5.63;1.30;;;;;;;8.74;57.85;95932.13;5066909;28;20044;-76
2021/04/10 05:08:22;;;;;;;4.60;1.43;;;;;;;8.62;59.17;95930.75;5073613;28;20029;-74
2021/04/10 05:10:48;;;;;;;4.53;1.10;;;;;;;8.50;59.62;95939.84;5058135;28;20032;-76
2021/04/10 05:13:14;;;;;;;10.03;4.30;;;;;;;8.26;63.16;95933.41;5058253;28;20715;-75
2021/04/10 05:15:39;;;;;;;9.80;4.70;;;;;;;8.15;63.68;95938.91;5061474;28;20024;-75
2021/04/10 05:18:05;;;;;;;4.83;1.30;;;;;;;8.22;63.32;95946.97;5060034;28;20023;-76
2021/04/10 05:20:31;;;;;;;2.83;1.20;;;;;;;8.09;64.31;95936.06;5083082;28;20038;-75
2021/04/10 05:22:56;;;;;;;4.90;1.43;;;;;;;8.14;64.02;95946.88;5067935;28;20393;-75
2021/04/10 05:25:23;;;;;;;6.40;1.60;;;;;;;8.07;63.50;95936.19;5072513;28;20028;-76
2021/04/10 05:27:49;;;;;;;4.20;1.33;;;;;;;8.03;64.28;95937.47;5047275;28;20028;-74
2021/04/10 05:30:16;;;;;;;6.70;1.87;;;;;;;8.01;64.46;95955.13;5058272;28;20068;-75
2021/04/10 05:32:41;;;;;;;4.50;1.97;;;;;;;8.12;62.64;95951.47;5072181;28;20066;-75
2021/04/10 05:35:08;;;;;;;3.23;1.37;;;;;;;8.06;62.81;95957.31;5075179;28;20055;-75
2021/04/10 05:37:34;;;;;;;6.27;2.60;;;;;;;8.06;62.51;95952.88;5059636;28;20044;-75
2021/04/10 05:39:59;;;;;;;6.30;1.23;;;;;;;8.11;62.70;95958.47;5058618;28;20056;-75
2021/04/10 05:42:25;;;;;;;4.10;1.30;;;;;;;8.12;62.01;95961.94;5059099;28;20044;-74
2021/04/10 05:44:51;;;;;;;5.10;1.27;;;;;;;8.18;60.84;95963.94;5084970;28;20032;-74
2021/04/10 05:47:16;;;;;;;3.90;1.27;;;;;;;8.35;59.05;95962.28;5061139;28;20103;-75
2021/04/10 05:49:42;;;;;;;4.37;1.40;;;;;;;8.39;58.55;95966.28;5057511;28;20032;-75
2021/04/10 05:52:08;;;;;;;3.07;1.30;;;;;;;8.38;59.29;95967.25;5074354;28;20376;-75
2021/04/10 05:54:33;;;;;;;4.23;1.40;;;;;;;8.38;58.59;95982.97;5049908;28;20024;-76
2021/04/10 05:56:59;;;;;;;4.43;1.30;;;;;;;8.42;58.63;95981.72;5068391;28;20103;-76
2021/04/10 05:59:25;;;;;;;5.27;1.60;;;;;;;8.38;59.48;95977.72;5032382;28;20033;-75
2021/04/10 06:01:52;;;;;;;3.30;1.10;;;;;;;8.35;59.42;95983.25;5059616;28;20024;-75
2021/04/10 06:04:17;;;;;;;8.47;2.30;;;;;;;8.36;59.57;95990.97;5075237;28;20380;-75
2021/04/10 06:06:43;;;;;;;3.07;1.30;;;;;;;8.31;60.47;95987.13;5081750;28;20021;-76
2021/04/10 06:09:09;;;;;;;6.93;1.77;;;;;;;8.32;60.24;95988.81;5043055;28;20033;-76
2021/04/10 06:11:35;;;;;;;5.30;2.10;;;;;;;8.25;60.82;95989.41;5084278;28;20032;-76
2021/04/10 06:14:00;;;;;;;4.37;1.17;;;;;;;8.36;59.87;95984.91;5050535;28;20040;-75
2021/04/10 06:16:26;;;;;;;8.53;1.17;;;;;;;8.29;60.91;95994.34;5053388;28;20120;-74
2021/04/10 06:18:52;;;;;;;2.17;1.00;;;;;;;8.31;60.90;95993.19;5054132;28;20464;-75
2021/04/10 06:21:18;;;;;;;3.00;1.47;;;;;;;8.30;61.06;95998.59;5068451;28;20075;-74
2021/04/10 06:23:46;;;;;;;5.73;1.30;;;;;;;8.32;62.09;95994.03;5071075;28;20021;-75
2021/04/10 06:26:13;;;;;;;5.57;1.53;;;;;;;8.27;62.84;96000.53;5080513;28;20111;-75
2021/04/10 06:28:38;;;;;;;5.00;1.30;;;;;;;8.29;63.69;96000.41;5072060;28;20032;-75
2021/04/10 06:31:04;;;;;;;6.63;2.00;;;;;;;8.12;66.45;95998.63;5067475;28;20033;-74
2021/04/10 06:33:30;;;;;;;7.07;1.60;;;;;;;8.02;69.65;96009.16;5062272;28;20032;-75
2021/04/10 06:35:55;;;;;;;3.33;1.30;;;;;;;7.94;71.31;96009.06;5082756;28;20028;-75
2021/04/10 06:38:21;;;;;;;6.77;1.33;;;;;;;7.94;72.15;96007.25;5052672;28;20029;-75
2021/04/10 06:40:47;;;;;;;4.67;1.27;;;;;;;7.80;71.95;96011.22;5065101;28;20048;-75
2021/04/10 06:43:13;;;;;;;4.73;1.43;;;;;;;7.79;73.42;96014.00;5080801;28;20032;-76
2021/04/10 06:45:39;;;;;;;4.47;1.37;;;;;;;7.74;72.49;96027.50;5066540;28;20033;-75
2021/04/10 06:48:13;;;;;;;5.30;1.37;;;;;;;7.61;72.80;96019.19;5084232;28;20660;-74
2021/04/10 06:50:41;;;;;;;3.33;1.27;;;;;;;7.59;72.66;96023.75;5046572;28;20525;-75
2021/04/10 06:53:12;;;;;;;4.67;1.47;;;;;;;7.54;73.41;96021.59;5067086;28;20016;-74
2021/04/10 06:55:45;;;;;;;7.77;2.73;;;;;;;7.59;73.25;96022.94;5077490;28;20029;-75
2021/04/10 06:58:18;;;;;;;5.83;2.17;;;;;;;7.55;73.30;96027.63;5051639;28;20033;-75
2021/04/10 07:00:44;;;;;;;4.82;2.33;;;;;;;7.52;73.32;96028.75;5064758;28;20044;-75
2021/04/10 07:03:11;;;;;;;4.17;1.20;;;;;;;7.53;73.67;96025.16;5076616;28;20086;-74
2021/04/10 07:05:37;;;;;;;5.77;1.27;;;;;;;7.46;73.87;96024.09;5049140;28;20056;-75
2021/04/10 07:08:06;;;;;;;5.20;1.37;;;;;;;7.43;73.87;96028.78;5068952;28;20056;-74
2021/04/10 07:10:31;;;;;;;2.77;1.60;;;;;;;7.37;74.28;96038.03;5078962;28;20063;-75
2021/04/10 07:12:57;;;;;;;8.93;1.87;;;;;;;7.35;74.71;96028.69;5071635;28;20115;-75
2021/04/10 07:15:23;;;;;;;6.87;2.23;;;;;;;7.31;75.33;96033.41;5079009;28;20028;-75
2021/04/10 07:17:52;;;;;;;5.33;1.80;;;;;;;7.20;nan;96042.22;5069487;28;20036;-75
2021/04/10 07:20:24;;;;;;;4.60;1.50;;;;;;;7.25;77.87;96045.25;5062332;28;20557;-75
2021/04/10 07:23:15;;;;;;;5.50;1.80;;;;;;;7.20;77.85;96044.84;5065712;28;20553;-74
2021/04/10 07:25:45;;;;;;;4.87;1.83;;;;;;;7.19;77.41;96050.22;5077547;28;20043;-74
2021/04/10 07:28:30;;;;;;;6.47;1.93;;;;;;;7.15;77.55;96041.84;5088210;28;20588;-74
2021/04/10 07:31:03;;;;;;;8.73;1.80;;;;;;;7.13;78.01;96058.63;5082161;28;20046;-74
2021/04/10 07:33:40;;;;;;;6.87;1.77;;;;;;;7.23;77.43;96054.19;5070897;28;20075;-75
2021/04/10 07:36:08;;;;;;;5.53;1.80;;;;;;;7.26;77.31;96054.72;5054178;28;20063;-76
2021/04/10 07:38:42;;;;;;;2.53;1.37;;;;;;;7.28;77.94;96058.03;5077961;28;20024;-74
2021/04/10 07:41:13;;;;;;;4.20;1.70;;;;;;;7.18;77.17;96062.47;5067796;28;20029;-74
2021/04/10 07:43:41;;;;;;;4.00;1.47;;;;;;;7.18;78.17;96064.28;5075196;28;20045;-75
2021/04/10 07:46:09;;;;;;;5.13;2.10;;;;;;;7.25;77.92;96060.94;5068153;28;20029;-74
2021/04/10 07:48:36;;;;;;;6.97;2.13;;;;;;;7.25;78.11;96066.16;5068424;28;20472;-74
2021/04/10 07:51:02;;;;;;;5.37;1.93;;;;;;;7.30;77.69;96066.56;5062604;28;20028;-75
2021/04/10 07:53:29;;;;;;;5.73;2.17;;;;;;;7.38;78.00;96068.47;5060229;28;20127;-74
2021/04/10 07:55:57;;;;;;;7.43;2.63;;;;;;;7.86;76.19;96072.66;5081924;28;20388;-73
2021/04/10 07:58:30;;;;;;;7.13;2.37;;;;;;;7.63;76.31;96072.22;5067627;28;20091;-75
2021/04/10 08:01:04;;;;;;;6.20;1.90;;;;;;;7.57;76.87;96078.00;5060379;28;20721;-76
2021/04/10 08:03:36;;;;;;;4.23;2.00;;;;;;;7.50;77.22;96072.53;5062204;28;20044;-75
2021/04/10 08:06:05;;;;;;;5.83;2.60;;;;;;;7.53;76.51;96074.03;5048177;28;20121;-75
2021/04/10 08:08:44;;;;;;;5.57;2.00;;;;;;;7.60;75.72;96080.34;5049999;28;20029;-75
2021/04/10 08:11:10;;;;;;;6.57;2.27;;;;;;;7.59;75.57;96078.72;5065049;28;20033;-76
2021/04/10 08:13:36;;;;;;;7.40;1.90;;;;;;;7.64;75.91;96094.78;5031787;28;20047;-74
2021/04/10 08:16:18;;;;;;;6.60;2.37;;;;;;;7.68;76.77;96101.41;5073211;28;20580;-76
2021/04/10 08:18:47;;;;;;;5.90;2.40;;;;;;;7.70;76.02;96099.44;5056142;28;20043;-74
2021/04/10 08:21:14;;;;;;;6.80;1.87;;;;;;;7.84;76.01;96100.75;5054014;28;20398;-75
2021/04/10 08:23:41;;;;;;;3.77;1.77;;;;;;;7.88;75.87;96102.13;5067938;28;20028;-75
2021/04/10 08:26:07;;;;;;;7.17;2.07;;;;;;;7.96;75.94;96101.41;5053297;28;20047;-75
2021/04/10 08:28:35;;;;;;;4.53;2.00;;;;;;;8.15;74.62;96098.69;5051010;28;20033;-74
2021/04/10 08:31:02;;;;;;;6.10;2.50;;;;;;;8.32;73.48;96097.06;5063888;28;20028;-75
2021/04/10 08:33:29;;;;;;;6.83;2.33;;;;;;;8.64;73.11;96100.97;5061396;28;20095;-75
2021/04/10 08:35:57;;;;;;;4.63;2.07;;;;;;;8.88;71.81;96100.34;5079704;28;20016;-75
2021/04/10 08:38:24;;;;;;;5.67;1.90;;;;;;;8.99;71.27;96097.50;5048313;28;20059;-75
2021/04/10 08:40:55;;;;;;;4.57;1.77;;;;;;;8.96;70.52;96103.03;5066105;28;20029;-75
2021/04/10 08:43:22;;;;;;;6.23;2.20;;;;;;;9.19;71.16;96113.88;5075343;28;20029;-75
2021/04/10 08:45:54;;;;;;;4.80;1.83;;;;;;;9.36;70.08;96104.31;5031279;28;20084;-74
2021/04/10 08:48:22;;;;;;;4.60;2.00;;;;;;;10.09;68.57;96102.03;5067538;28;20024;-75
2021/04/10 08:50:51;;;;;;;3.50;1.87;;;;;;;10.29;67.88;96101.75;5077364;28;20020;-75
2021/04/10 08:53:28;;;;;;;6.10;2.20;;;;;;;9.98;67.70;96107.56;5064172;28;20032;-75
2021/04/10 08:55:55;;;;;;;5.60;2.60;;;;;;;9.72;67.58;96098.91;5036447;28;20116;-75
2021/04/10 08:58:24;;;;;;;6.87;2.60;;;;;;;9.70;67.21;96101.69;5053945;28;20033;-75
2021/04/10 09:00:58;;;;;;;6.83;1.90;;;;;;;9.80;66.89;96106.84;5076621;28;20045;-74
2021/04/10 09:03:56;;;;;;;6.30;2.03;;;;;;;9.79;67.20;96110.41;5054074;28;20041;-75
2021/04/10 09:06:31;;;;;;;3.37;1.43;;;;;;;9.98;66.09;96102.31;5038515;28;20060;-75
2021/04/10 09:09:14;;;;;;;5.23;1.57;;;;;;;9.70;66.58;96106.13;5053711;28;20036;-74
2021/04/10 09:11:48;;;;;;;3.83;1.52;;;;;;;9.78;65.56;96111.41;5054332;28;20085;-75
2021/04/10 09:14:34;;;;;;;7.27;2.20;;;;;;;9.84;65.90;96108.97;5067568;28;20474;-74
2021/04/10 09:17:00;;;;;;;7.20;2.00;;;;;;;9.83;65.01;96117.03;5067039;28;20445;-74
2021/04/10 09:19:26;;;;;;;4.27;2.03;;;;;;;9.55;65.27;96109.31;5054411;28;20120;-75
2021/04/10 09:21:55;;;;;;;5.23;2.30;;;;;;;9.75;64.91;96111.72;5034393;28;20029;-75
2021/04/10 09:24:31;;;;;;;7.47;2.10;;;;;;;10.00;65.13;96110.84;5068562;28;20039;-75
2021/04/10 09:27:02;;;;;;;5.50;1.57;;;;;;;9.94;63.38;96115.91;5055154;28;20041;-75
2021/04/10 09:29:35;;;;;;;3.50;1.53;;;;;;;10.10;63.67;96122.06;5066199;28;20029;-75
2021/04/10 09:32:01;;;;;;;4.97;1.60;;;;;;;9.91;63.12;96109.16;5058037;28;20109;-75
2021/04/10 09:34:50;;;;;;;4.13;1.37;;;;;;;10.23;62.05;96112.88;5052637;28;20541;-74
2021/04/10 09:37:19;;;;;;;4.93;2.73;;;;;;;10.46;62.27;96108.72;5062008;28;20108;-75
2021/04/10 09:40:09;;;;;;;3.97;1.60;;;;;;;10.47;60.93;96102.47;5043459;28;20036;-75
2021/04/10 09:42:37;;;;;;;3.87;1.40;;;;;;;10.60;60.58;96105.47;5051406;28;20091;-75
2021/04/10 09:45:25;;;;;;;5.27;1.60;;;;;;;10.56;60.44;96112.03;5059954;28;20037;-75
2021/04/10 09:47:57;;;;;;;3.63;1.57;;;;;;;10.97;60.17;96112.06;5067986;28;20507;-75
2021/04/10 09:50:27;;;;;;;7.13;1.80;;;;;;;11.14;59.06;96101.53;5062474;28;20470;-75
2021/04/10 09:53:19;;;;;;;6.53;2.73;;;;;;;11.64;58.92;96098.63;5070886;28;20033;-75
2021/04/10 09:55:48;;;;;;;3.63;1.70;;;;;;;11.96;57.48;96103.00;5042053;28;20042;-74
2021/04/10 09:58:16;;;;;;;3.70;1.20;;;;;;;11.89;57.17;96095.94;5066643;28;20477;-75
2021/04/10 10:00:53;;;;;;;4.47;1.57;;;;;;;11.97;56.40;96102.03;5050613;28;20039;-75
2021/04/10 10:03:23;;;;;;;5.60;1.50;;;;;;;12.06;55.96;96094.06;5050795;28;20521;-75
2021/04/10 10:05:52;;;;;;;4.40;1.70;;;;;;;12.29;55.32;96092.31;5065076;28;20033;-75
2021/04/10 10:08:18;;;;;;;3.77;1.80;;;;;;;11.97;55.84;96093.25;5070349;28;20082;-75
2021/04/10 10:10:51;;;;;;;8.67;3.63;;;;;;;11.90;55.28;96090.50;5061658;28;21537;-75
2021/04/10 10:13:20;;;;;;;7.28;2.47;;;;;;;11.85;56.07;96086.75;5054620;28;20040;-75
2021/04/10 10:15:47;;;;;;;4.27;1.93;;;;;;;11.95;56.07;96082.91;5033925;28;20029;-75
2021/04/10 10:18:18;;;;;;;3.63;1.47;;;;;;;11.81;56.28;96083.59;5064860;28;20056;-76
2021/04/10 10:20:52;;;;;;;1.60;1.07;;;;;;;11.73;55.58;96081.78;5070546;28;20033;-76
2021/04/10 10:23:18;;;;;;;5.67;2.20;;;;;;;11.67;56.45;96079.03;5041271;28;20052;-76
2021/04/10 10:25:45;;;;;;;2.77;1.40;;;;;;;11.66;56.73;96075.56;5061862;28;20039;-75
2021/04/10 10:28:15;;;;;;;5.40;1.40;;;;;;;11.56;56.31;96075.75;5077697;28;20032;-75
2021/04/10 10:30:41;;;;;;;3.33;1.57;;;;;;;11.61;56.19;96077.09;5071367;28;20036;-76
2021/04/10 10:33:07;;;;;;;5.20;1.57;;;;;;;11.50;56.75;96075.63;5071828;28;20028;-75
2021/04/10 10:35:34;;;;;;;5.60;1.67;;;;;;;11.38;57.01;96069.06;5067112;28;20044;-76
2021/04/10 10:38:07;;;;;;;5.37;1.67;;;;;;;11.43;56.77;96074.66;5066155;28;20025;-76
2021/04/10 10:40:34;;;;;;;3.20;1.30;;;;;;;11.20;56.93;96078.00;5079720;28;20062;-75
2021/04/10 10:43:09;;;;;;;5.30;1.47;;;;;;;11.28;57.45;96064.00;5073432;28;20059;-76
2021/04/10 10:45:52;;;;;;;5.87;1.73;;;;;;;11.59;57.00;96066.69;5065256;28;20046;-76
2021/04/10 10:48:27;;;;;;;8.48;1.45;;;;;;;11.35;56.80;96064.16;5057156;28;20064;-76
2021/04/10 10:51:05;;;;;;;5.27;1.50;;;;;;;11.21;56.90;96055.94;5068486;28;20036;-77
2021/04/10 10:53:37;;;;;;;2.60;1.30;;;;;;;11.05;57.01;96062.03;5056291;28;20041;-76
2021/04/10 10:56:06;;;;;;;5.10;1.77;;;;;;;11.30;56.88;96059.38;5058076;28;20095;-77
2021/04/10 10:58:54;;;;;;;3.90;1.37;;;;;;;11.36;56.26;96052.63;5067669;28;20500;-76
2021/04/10 11:01:26;;;;;;;4.43;1.47;;;;;;;11.63;56.14;96051.38;5081592;28;20039;-76
2021/04/10 11:04:05;;;;;;;7.13;1.70;;;;;;;11.54;55.97;96050.59;5051663;28;20040;-76
2021/04/10 11:06:55;;;;;;;5.50;2.23;;;;;;;11.64;55.99;96050.41;5060158;28;20044;-75
2021/04/10 11:09:26;;;;;;;3.17;1.40;;;;;;;11.50;55.73;96050.13;5064506;28;20174;-76
2021/04/10 11:11:55;;;;;;;5.47;1.80;;;;;;;11.68;55.34;96054.34;5068373;28;20030;-76
2021/04/10 11:14:30;;;;;;;2.97;1.47;;;;;;;11.63;55.84;96054.00;5072535;28;20028;-76
2021/04/10 11:17:00;;;;;;;4.63;1.50;;;;;;;11.61;56.70;96053.38;5067602;28;20298;-77
2021/04/10 11:19:25;;;;;;;4.53;1.63;;;;;;;11.61;56.29;96054.19;5051572;28;20530;-76
2021/04/10 11:21:53;;;;;;;4.50;1.70;;;;;;;11.77;55.57;96056.78;5059807;28;20119;-76
2021/04/10 11:24:19;;;;;;;5.10;2.50;;;;;;;11.91;55.77;96051.81;5051907;28;20064;-75
2021/04/10 11:26:48;;;;;;;3.57;1.43;;;;;;;11.71;55.61;96056.63;5067678;28;20039;-76
2021/04/10 11:29:30;;;;;;;4.77;1.47;;;;;;;11.85;55.92;96048.03;5067386;28;20032;-76
2021/04/10 11:32:13;;;;;;;7.77;2.00;;;;;;;12.14;55.85;96039.50;5059026;28;20024;-77
2021/04/10 11:34:52;;;;;;;6.10;2.00;;;;;;;12.61;54.94;96035.91;5041310;28;737712;-77
2021/04/10 11:37:38;;;;;;;6.77;2.60;;;;;;;12.64;54.78;96032.06;5056707;28;20123;-76
2021/04/10 11:40:11;;;;;;;4.93;2.17;;;;;;;12.64;54.02;96029.41;5071805;28;20024;-76
2021/04/10 11:42:39;;;;;;;5.55;1.80;;;;;;;12.93;54.13;96026.88;5064157;28;20408;-77
2021/04/10 11:45:05;;;;;;;5.53;2.20;;;;;;;13.18;53.26;96030.09;5073944;28;20032;-78
2021/04/10 11:47:33;;;;;;;8.03;2.20;;;;;;;13.11;53.27;96023.91;5062881;28;20040;-77
2021/04/10 11:50:25;;;;;;;4.40;2.07;;;;;;;13.07;52.85;96022.63;5063525;28;20166;-77
2021/04/10 11:52:51;;;;;;;3.97;1.80;;;;;;;12.95;52.45;96024.88;5038536;28;20098;-76